createdAt,value
2019-03-08T00:00:31.748Z,55.00
2019-03-08T00:01:31.730Z,59.29
2019-03-08T00:02:31.767Z,59.70
2019-03-08T00:03:31.703Z,54.09
2019-03-08T00:04:31.693Z,51.70
2019-03-08T00:05:31.682Z,42.90
2019-03-08T00:06:31.677Z,43.40
2019-03-08T00:07:31.664Z,49.40
2019-03-08T00:08:31.706Z,46.59
2019-03-08T00:09:31.642Z,42.70
2019-03-08T00:10:31.631Z,40.20
2019-03-08T00:11:31.615Z,34.29
2019-03-08T00:12:31.610Z,37.00
2019-03-08T00:13:31.598Z,49.90
2019-03-08T00:14:31.735Z,38.20
2019-03-08T00:15:31.576Z,40.00
2019-03-08T00:16:31.563Z,52.90
2019-03-08T00:17:31.558Z,48.50
2019-03-08T00:18:31.543Z,42.29
2019-03-08T00:19:31.533Z,43.59
2019-03-08T00:20:31.571Z,39.90
2019-03-08T00:21:31.516Z,39.79
2019-03-08T00:22:31.503Z,48.09
2019-03-08T00:23:31.492Z,33.20
2019-03-08T00:24:31.482Z,37.70
2019-03-08T00:25:31.473Z,30.39
2019-03-08T00:26:31.563Z,33.79
2019-03-08T00:27:31.452Z,26.60
2019-03-08T00:28:31.436Z,37.59
2019-03-08T00:29:31.431Z,35.59
2019-03-08T00:30:31.416Z,51.79
2019-03-08T00:31:31.403Z,58.59
2019-03-08T00:32:31.790Z,49.59
2019-03-08T00:33:31.381Z,65.50
2019-03-08T00:34:31.372Z,82.00
2019-03-08T00:35:31.363Z,74.69
2019-03-08T00:36:31.384Z,70.09
2019-03-08T00:37:31.346Z,67.09
2019-03-08T00:38:31.372Z,46.20
2019-03-08T00:39:31.315Z,47.79
2019-03-08T00:40:31.304Z,38.40
2019-03-08T00:41:31.298Z,30.20
2019-03-08T00:42:31.291Z,31.89
2019-03-08T00:43:31.273Z,27.39
2019-03-08T00:44:31.364Z,31.29
2019-03-08T00:45:31.249Z,30.70
2019-03-08T00:46:31.243Z,23.50
2019-03-08T00:47:31.234Z,47.79
2019-03-08T00:48:31.216Z,43.20
2019-03-08T00:49:31.211Z,27.00
2019-03-08T00:50:31.445Z,30.50
2019-03-08T00:51:31.188Z,28.60
2019-03-08T00:52:33.001Z,29.20
2019-03-08T00:53:31.168Z,30.89
2019-03-08T00:54:31.157Z,29.20
2019-03-08T00:55:31.141Z,34.00
2019-03-08T00:56:31.231Z,30.70
2019-03-08T00:57:31.124Z,40.29
2019-03-08T00:58:31.115Z,38.09
2019-03-08T00:59:31.103Z,56.79
2019-03-08T01:00:31.093Z,69.59
2019-03-08T01:01:31.080Z,48.70
2019-03-08T01:02:31.171Z,56.70
2019-03-08T01:03:31.059Z,56.50
2019-03-08T01:04:31.051Z,47.90
2019-03-08T01:05:31.036Z,54.00
2019-03-08T01:06:31.028Z,64.50
2019-03-08T01:07:31.015Z,64.19
2019-03-08T01:08:31.253Z,54.00
2019-03-08T01:09:30.992Z,47.90
2019-03-08T01:10:30.985Z,46.79
2019-03-08T01:11:30.972Z,54.00
2019-03-08T01:12:30.964Z,48.29
2019-03-08T01:13:30.953Z,35.79
2019-03-08T01:14:30.992Z,33.70
2019-03-08T01:15:30.930Z,41.70
2019-03-08T01:16:30.917Z,54.20
2019-03-08T01:17:30.907Z,44.50
2019-03-08T01:18:30.893Z,68.59
2019-03-08T01:19:30.893Z,70.00
2019-03-08T01:20:30.976Z,48.90
2019-03-08T01:21:30.863Z,36.50
2019-03-08T01:22:30.851Z,43.50
2019-03-08T01:23:30.850Z,39.40
2019-03-08T01:24:30.834Z,53.20
2019-03-08T01:25:30.819Z,45.20
2019-03-08T01:26:30.960Z,40.20
2019-03-08T01:27:30.800Z,44.29
2019-03-08T01:28:30.793Z,43.90
2019-03-08T01:29:30.778Z,36.90
2019-03-08T01:30:30.767Z,37.79
2019-03-08T01:31:30.761Z,36.29
2019-03-08T01:32:30.846Z,45.90
2019-03-08T01:33:30.739Z,44.29
2019-03-08T01:34:30.724Z,38.79
2019-03-08T01:35:30.718Z,30.60
2019-03-08T01:36:30.706Z,31.00
2019-03-08T01:37:30.691Z,29.39
2019-03-08T01:38:30.730Z,26.39
2019-03-08T01:39:30.671Z,23.39
2019-03-08T01:40:30.659Z,37.59
2019-03-08T01:41:30.649Z,39.79
2019-03-08T01:42:30.642Z,56.79
2019-03-08T01:43:30.629Z,51.20
2019-03-08T01:44:30.769Z,44.40
2019-03-08T01:45:30.605Z,57.59
2019-03-08T01:46:30.598Z,63.29
2019-03-08T01:47:30.580Z,57.40
2019-03-08T01:48:30.572Z,62.59
2019-03-08T01:49:30.559Z,63.09
2019-03-08T01:50:30.650Z,56.59
2019-03-08T01:51:30.545Z,64.30
2019-03-08T01:52:30.533Z,68.09
2019-03-08T01:53:30.518Z,61.40
2019-03-08T01:54:30.511Z,57.90
2019-03-08T01:55:30.501Z,61.59
2019-03-08T01:56:30.587Z,62.59
2019-03-08T01:57:30.478Z,68.90
2019-03-08T01:58:30.467Z,65.69
2019-03-08T01:59:30.458Z,63.40
2019-03-08T02:00:30.448Z,57.40
2019-03-08T02:01:30.436Z,65.69
2019-03-08T02:02:30.629Z,61.79
2019-03-08T02:03:30.415Z,67.09
2019-03-08T02:04:30.402Z,88.19
2019-03-08T02:05:30.395Z,87.50
2019-03-08T02:06:30.376Z,63.29
2019-03-08T02:07:30.375Z,67.19
2019-03-08T02:08:30.417Z,78.69
2019-03-08T02:09:30.349Z,61.70
2019-03-08T02:10:30.340Z,54.90
2019-03-08T02:11:30.327Z,67.90
2019-03-08T02:12:30.319Z,64.69
2019-03-08T02:13:30.307Z,75.40
2019-03-08T02:14:30.398Z,67.80
2019-03-08T02:15:30.290Z,76.50
2019-03-08T02:16:30.274Z,69.00
2019-03-08T02:17:30.261Z,66.09
2019-03-08T02:18:30.254Z,48.00
2019-03-08T02:19:30.247Z,47.59
2019-03-08T02:20:30.629Z,49.90
2019-03-08T02:21:30.220Z,46.50
2019-03-08T02:22:30.209Z,70.19
2019-03-08T02:23:30.194Z,74.19
2019-03-08T02:24:30.190Z,82.69
2019-03-08T02:25:30.175Z,89.00
2019-03-08T02:26:30.215Z,78.59
2019-03-08T02:27:30.150Z,69.30
2019-03-08T02:28:30.146Z,79.40
2019-03-08T02:29:30.131Z,90.19
2019-03-08T02:30:30.122Z,81.50
2019-03-08T02:31:30.108Z,71.50
2019-03-08T02:32:30.203Z,75.00
2019-03-08T02:33:30.091Z,65.90
2019-03-08T02:34:30.080Z,68.00
2019-03-08T02:35:30.067Z,73.69
2019-03-08T02:36:30.055Z,71.80
2019-03-08T02:37:30.045Z,77.00
2019-03-08T02:38:30.184Z,79.80
2019-03-08T02:39:30.022Z,52.20
2019-03-08T02:40:30.012Z,66.09
2019-03-08T02:41:30.002Z,66.09
2019-03-08T02:42:29.989Z,60.79
2019-03-08T02:43:29.977Z,70.09
2019-03-08T02:44:30.017Z,71.30
2019-03-08T02:45:29.955Z,76.80
2019-03-08T02:46:29.947Z,85.19
2019-03-08T02:47:29.937Z,70.59
2019-03-08T02:48:29.920Z,77.19
2019-03-08T02:49:30.011Z,79.00
2019-03-08T02:50:29.905Z,68.40
2019-03-08T02:51:29.888Z,59.70
2019-03-08T02:52:29.880Z,77.90
2019-03-08T02:53:29.869Z,74.30
2019-03-08T02:54:30.010Z,77.40
2019-03-08T02:55:29.852Z,67.50
2019-03-08T02:56:29.839Z,68.80
2019-03-08T02:57:29.828Z,59.29
2019-03-08T02:58:29.825Z,85.80
2019-03-08T02:59:29.801Z,62.50
2019-03-08T03:00:29.899Z,67.69
2019-03-08T03:01:29.784Z,74.19
2019-03-08T03:02:29.774Z,63.09
2019-03-08T03:03:29.760Z,58.50
2019-03-08T03:04:29.750Z,75.19
2019-03-08T03:05:29.745Z,70.19
2019-03-08T03:06:29.833Z,72.59
2019-03-08T03:07:29.720Z,77.00
2019-03-08T03:08:29.706Z,79.19
2019-03-08T03:09:29.700Z,80.30
2019-03-08T03:10:29.685Z,67.90
2019-03-08T03:11:29.677Z,65.09
2019-03-08T03:12:29.817Z,75.19
2019-03-08T03:13:29.654Z,77.00
2019-03-08T03:14:29.644Z,75.09
2019-03-08T03:15:29.627Z,64.00
2019-03-08T03:16:29.619Z,78.90
2019-03-08T03:17:29.611Z,73.00
2019-03-08T03:18:29.697Z,76.90
2019-03-08T03:19:29.587Z,68.59
2019-03-08T03:20:29.579Z,77.19
2019-03-08T03:21:29.566Z,68.30
2019-03-08T03:22:29.554Z,64.69
2019-03-08T03:23:29.543Z,58.09
2019-03-08T03:24:29.588Z,65.40
2019-03-08T03:25:29.527Z,57.70
2019-03-08T03:26:29.512Z,59.20
2019-03-08T03:27:29.500Z,63.79
2019-03-08T03:28:29.495Z,75.40
2019-03-08T03:29:29.488Z,73.50
2019-03-08T03:30:29.623Z,70.40
2019-03-08T03:31:29.463Z,56.70
2019-03-08T03:32:29.444Z,63.29
2019-03-08T03:33:29.439Z,76.19
2019-03-08T03:34:29.428Z,82.50
2019-03-08T03:35:29.420Z,69.00
2019-03-08T03:36:29.462Z,74.90
2019-03-08T03:37:29.396Z,68.69
2019-03-08T03:38:29.386Z,68.80
2019-03-08T03:39:29.375Z,77.19
2019-03-08T03:40:29.365Z,78.50
2019-03-08T03:41:29.355Z,65.69
2019-03-08T03:42:30.195Z,70.30
2019-03-08T03:43:29.335Z,66.19
2019-03-08T03:44:29.323Z,67.59
2019-03-08T03:45:29.310Z,62.79
2019-03-08T03:46:29.297Z,61.70
2019-03-08T03:47:29.288Z,69.50
2019-03-08T03:48:29.483Z,60.59
2019-03-08T03:49:29.268Z,57.59
2019-03-08T03:50:29.258Z,62.00
2019-03-08T03:51:29.248Z,65.19
2019-03-08T03:52:29.239Z,48.00
2019-03-08T03:53:29.229Z,49.09
2019-03-08T03:54:29.269Z,47.00
2019-03-08T03:55:29.204Z,49.20
2019-03-08T03:56:29.193Z,47.59
2019-03-08T03:57:29.187Z,40.59
2019-03-08T03:58:29.175Z,46.09
2019-03-08T03:59:29.164Z,42.00
2019-03-08T04:00:29.257Z,46.50
2019-03-08T04:01:29.146Z,48.79
2019-03-08T04:02:29.132Z,41.50
2019-03-08T04:03:29.121Z,48.40
2019-03-08T04:04:29.114Z,39.29
2019-03-08T04:05:29.101Z,48.20
2019-03-08T04:06:29.490Z,35.90
2019-03-08T04:07:29.078Z,35.50
2019-03-08T04:08:29.069Z,31.60
2019-03-08T04:09:29.060Z,30.70
2019-03-08T04:10:29.047Z,34.79
2019-03-08T04:11:29.037Z,34.50
2019-03-08T04:12:29.074Z,26.79
2019-03-08T04:13:29.017Z,27.89
2019-03-08T04:14:29.002Z,33.90
2019-03-08T04:15:28.992Z,30.20
2019-03-08T04:16:28.980Z,30.10
2019-03-08T04:17:28.985Z,28.00
2019-03-08T04:18:29.008Z,37.59
2019-03-08T04:19:28.954Z,32.59
2019-03-08T04:20:28.939Z,29.89
2019-03-08T04:21:28.931Z,33.20
2019-03-08T04:22:28.923Z,43.50
2019-03-08T04:23:29.014Z,43.09
2019-03-08T04:24:28.902Z,38.29
2019-03-08T04:25:28.891Z,35.79
2019-03-08T04:26:28.877Z,42.00
2019-03-08T04:27:28.871Z,35.20
2019-03-08T04:28:29.107Z,37.20
2019-03-08T04:29:28.850Z,35.79
2019-03-08T04:30:28.840Z,40.59
2019-03-08T04:31:28.829Z,37.79
2019-03-08T04:32:28.818Z,40.59
2019-03-08T04:33:28.799Z,36.79
2019-03-08T04:34:28.847Z,32.70
2019-03-08T04:35:28.785Z,29.39
2019-03-08T04:36:30.287Z,35.59
2019-03-08T04:37:28.759Z,43.20
2019-03-08T04:38:28.751Z,33.59
2019-03-08T04:39:28.744Z,33.70
2019-03-08T04:40:28.779Z,34.20
2019-03-08T04:41:28.713Z,38.90
2019-03-08T04:42:28.706Z,36.29
2019-03-08T04:43:28.703Z,32.00
2019-03-08T04:44:28.690Z,38.59
2019-03-08T04:45:29.078Z,33.29
2019-03-08T04:46:28.671Z,33.79
2019-03-08T04:47:28.652Z,35.09
2019-03-08T04:48:28.647Z,33.20
2019-03-08T04:49:28.635Z,39.50
2019-03-08T04:50:28.625Z,36.90
2019-03-08T04:51:28.716Z,34.20
2019-03-08T04:52:28.604Z,36.09
2019-03-08T04:53:28.593Z,39.09
2019-03-08T04:54:28.587Z,38.70
2019-03-08T04:55:28.578Z,42.70
2019-03-08T04:56:28.660Z,39.29
2019-03-08T04:57:28.549Z,41.09
2019-03-08T04:58:28.540Z,31.60
2019-03-08T04:59:28.527Z,36.50
2019-03-08T05:00:28.516Z,35.59
2019-03-08T05:01:28.505Z,32.00
2019-03-08T05:02:28.542Z,35.00
2019-03-08T05:03:28.490Z,28.39
2019-03-08T05:04:28.479Z,32.50
2019-03-08T05:05:28.466Z,32.90
2019-03-08T05:06:28.456Z,41.70
2019-03-08T05:07:28.448Z,34.00
2019-03-08T05:08:28.479Z,43.20
2019-03-08T05:09:28.421Z,38.09
2019-03-08T05:10:28.412Z,43.90
2019-03-08T05:11:28.405Z,39.40
2019-03-08T05:12:28.390Z,37.29
2019-03-08T05:13:28.531Z,36.59
2019-03-08T05:14:28.367Z,44.59
2019-03-08T05:15:28.360Z,38.40
2019-03-08T05:16:28.353Z,39.50
2019-03-08T05:17:28.338Z,38.70
2019-03-08T05:18:28.333Z,34.09
2019-03-08T05:19:28.418Z,33.50
2019-03-08T05:20:28.309Z,42.40
2019-03-08T05:21:28.297Z,37.50
2019-03-08T05:22:28.291Z,45.79
2019-03-08T05:23:28.276Z,34.20
2019-03-08T05:24:28.265Z,47.29
2019-03-08T05:25:28.310Z,37.29
2019-03-08T05:26:28.239Z,42.09
2019-03-08T05:27:28.232Z,42.20
2019-03-08T05:28:28.220Z,39.59
2019-03-08T05:29:28.216Z,40.59
2019-03-08T05:30:28.204Z,41.70
2019-03-08T05:31:28.343Z,44.50
2019-03-08T05:32:28.185Z,43.50
2019-03-08T05:33:28.167Z,48.79
2019-03-08T05:34:28.158Z,47.50
2019-03-08T05:35:28.149Z,44.59
2019-03-08T05:36:28.137Z,50.00
2019-03-08T05:37:28.178Z,45.20
2019-03-08T05:38:28.124Z,53.29
2019-03-08T05:39:28.103Z,43.59
2019-03-08T05:40:28.100Z,44.40
2019-03-08T05:41:28.085Z,37.29
2019-03-08T05:42:28.080Z,42.00
2019-03-08T05:43:28.113Z,43.90
2019-03-08T05:44:28.055Z,43.29
2019-03-08T05:45:28.043Z,41.90
2019-03-08T05:46:28.043Z,37.50
2019-03-08T05:47:28.021Z,44.59
2019-03-08T05:48:28.012Z,35.59
2019-03-08T05:49:28.103Z,46.20
2019-03-08T05:50:28.014Z,39.20
2019-03-08T05:51:28.022Z,41.20
2019-03-08T05:52:27.969Z,75.59
2019-03-08T05:53:27.957Z,49.90
2019-03-08T05:54:27.944Z,42.09
2019-03-08T05:55:27.990Z,45.09
2019-03-08T05:56:27.958Z,51.29
2019-03-08T05:57:27.919Z,46.59
2019-03-08T05:58:27.902Z,40.59
2019-03-08T05:59:27.890Z,47.59
2019-03-08T06:00:32.063Z,40.09
2019-03-08T06:01:29.169Z,36.59
2019-03-08T06:02:27.868Z,40.90
2019-03-08T06:03:27.853Z,74.80
2019-03-08T06:04:27.838Z,96.30
2019-03-08T06:05:27.833Z,55.09
2019-03-08T06:06:27.820Z,45.50
2019-03-08T06:07:27.907Z,41.59
2019-03-08T06:08:27.794Z,33.20
2019-03-08T06:09:27.786Z,37.00
2019-03-08T06:10:27.782Z,36.00
2019-03-08T06:11:27.766Z,45.29
2019-03-08T06:12:27.756Z,57.70
2019-03-08T06:13:27.844Z,61.59
2019-03-08T06:14:27.743Z,49.70
2019-03-08T06:15:27.731Z,41.70
2019-03-08T06:16:27.713Z,57.29
2019-03-08T06:17:27.703Z,68.09
2019-03-08T06:18:27.690Z,64.59
2019-03-08T06:19:27.929Z,41.90
2019-03-08T06:20:27.668Z,39.00
2019-03-08T06:21:27.659Z,45.59
2019-03-08T06:22:27.645Z,42.20
2019-03-08T06:23:27.637Z,40.50
2019-03-08T06:24:27.626Z,47.70
2019-03-08T06:25:27.667Z,42.59
2019-03-08T06:26:27.607Z,49.59
2019-03-08T06:27:27.594Z,38.09
2019-03-08T06:28:27.580Z,28.70
2019-03-08T06:29:27.567Z,38.40
2019-03-08T06:30:27.556Z,32.70
2019-03-08T06:31:27.599Z,32.90
2019-03-08T06:32:27.538Z,33.79
2019-03-08T06:33:27.526Z,34.29
2019-03-08T06:34:27.513Z,31.00
2019-03-08T06:35:27.508Z,35.40
2019-03-08T06:36:27.496Z,45.79
2019-03-08T06:37:27.639Z,51.09
2019-03-08T06:38:27.474Z,59.20
2019-03-08T06:39:27.465Z,35.59
2019-03-08T06:40:27.447Z,33.29
2019-03-08T06:41:27.439Z,33.50
2019-03-08T06:42:27.430Z,31.70
2019-03-08T06:43:27.522Z,47.70
2019-03-08T06:44:27.414Z,33.20
2019-03-08T06:45:27.398Z,30.60
2019-03-08T06:46:27.390Z,29.29
2019-03-08T06:47:27.376Z,31.00
2019-03-08T06:48:27.366Z,28.10
2019-03-08T06:49:27.403Z,29.89
2019-03-08T06:50:27.366Z,29.50
2019-03-08T06:51:27.339Z,23.29
2019-03-08T06:52:27.324Z,20.39
2019-03-08T06:53:27.321Z,19.20
2019-03-08T06:54:27.302Z,26.39
2019-03-08T06:55:27.442Z,23.29
2019-03-08T06:56:27.277Z,25.39
2019-03-08T06:57:27.270Z,20.10
2019-03-08T06:58:27.265Z,28.60
2019-03-08T06:59:27.264Z,24.50
2019-03-08T07:00:27.238Z,20.10
2019-03-08T07:01:27.276Z,26.29
2019-03-08T07:02:27.215Z,19.79
2019-03-08T07:03:27.206Z,21.79
2019-03-08T07:04:27.191Z,23.79
2019-03-08T07:05:27.183Z,23.29
2019-03-08T07:06:27.175Z,22.29
2019-03-08T07:07:27.221Z,20.00
2019-03-08T07:08:27.149Z,18.79
2019-03-08T07:09:27.142Z,20.50
2019-03-08T07:10:27.130Z,19.39
2019-03-08T07:11:27.117Z,23.79
2019-03-08T07:12:27.112Z,22.00
2019-03-08T07:13:28.094Z,24.39
2019-03-08T07:14:27.088Z,24.79
2019-03-08T07:15:27.077Z,23.60
2019-03-08T07:16:27.068Z,29.10
2019-03-08T07:17:27.049Z,23.00
2019-03-08T07:18:27.048Z,21.39
2019-03-08T07:19:27.134Z,23.29
2019-03-08T07:20:27.024Z,20.50
2019-03-08T07:21:27.004Z,29.00
2019-03-08T07:22:26.998Z,20.20
2019-03-08T07:23:28.118Z,17.89
2019-03-08T07:24:26.976Z,14.19
2019-03-08T07:25:27.017Z,14.19
2019-03-08T07:26:26.954Z,16.79
2019-03-08T07:27:26.944Z,12.50
2019-03-08T07:28:26.936Z,14.69
2019-03-08T07:29:26.917Z,15.10
2019-03-08T07:30:26.907Z,18.70
2019-03-08T07:31:27.109Z,15.50
2019-03-08T07:32:26.894Z,14.10
2019-03-08T07:33:26.896Z,17.00
2019-03-08T07:34:26.869Z,17.10
2019-03-08T07:35:26.856Z,15.10
2019-03-08T07:36:26.860Z,19.20
2019-03-08T07:37:26.934Z,15.39
2019-03-08T07:38:26.827Z,13.19
2019-03-08T07:39:26.812Z,16.60
2019-03-08T07:40:26.800Z,16.20
2019-03-08T07:41:28.765Z,22.70
2019-03-08T07:42:26.780Z,20.29
2019-03-08T07:43:26.817Z,17.70
2019-03-08T07:44:26.776Z,13.80
2019-03-08T07:45:26.749Z,11.30
2019-03-08T07:46:26.744Z,20.60
2019-03-08T07:47:26.725Z,17.50
2019-03-08T07:48:26.715Z,16.60
2019-03-08T07:49:26.861Z,16.39
2019-03-08T07:50:26.693Z,15.50
2019-03-08T07:51:26.682Z,11.10
2019-03-08T07:52:26.668Z,10.69
2019-03-08T07:53:26.658Z,17.29
2019-03-08T07:54:26.652Z,18.20
2019-03-08T07:55:26.688Z,11.50
2019-03-08T07:56:26.626Z,15.80
2019-03-08T07:57:26.615Z,14.00
2019-03-08T07:58:26.603Z,15.80
2019-03-08T07:59:26.591Z,11.60
2019-03-08T08:00:26.583Z,14.19
2019-03-08T08:01:26.622Z,14.30
2019-03-08T08:02:27.781Z,11.30
2019-03-08T08:03:26.551Z,15.30
2019-03-08T08:04:26.538Z,17.10
2019-03-08T08:05:26.528Z,18.89
2019-03-08T08:06:26.518Z,12.50
2019-03-08T08:07:26.656Z,14.80
2019-03-08T08:08:26.496Z,19.39
2019-03-08T08:09:26.487Z,16.89
2019-03-08T08:10:26.477Z,17.29
2019-03-08T08:11:26.459Z,20.79
2019-03-08T08:12:26.451Z,18.70
2019-03-08T08:13:26.543Z,21.29
2019-03-08T08:14:26.423Z,17.00
2019-03-08T08:15:26.422Z,20.39
2019-03-08T08:16:26.412Z,25.70
2019-03-08T08:17:26.414Z,22.50
2019-03-08T08:18:26.483Z,20.79
2019-03-08T08:19:26.369Z,19.39
2019-03-08T08:20:26.365Z,19.39
2019-03-08T08:21:26.353Z,21.00
2019-03-08T08:22:26.341Z,20.89
2019-03-08T08:23:34.091Z,24.60
2019-03-08T08:24:51.185Z,17.50
2019-03-08T08:25:51.178Z,16.89
2019-03-08T08:26:51.168Z,18.60
2019-03-08T08:27:51.155Z,23.00
2019-03-08T08:28:51.146Z,18.29
2019-03-08T08:29:51.329Z,21.20
2019-03-08T08:30:51.118Z,17.50
2019-03-08T08:31:51.108Z,21.50
2019-03-08T08:32:51.112Z,24.29
2019-03-08T08:33:51.091Z,21.39
2019-03-08T08:34:51.083Z,21.70
2019-03-08T08:35:51.120Z,22.00
2019-03-08T08:36:51.061Z,28.50
2019-03-08T08:37:51.047Z,21.60
2019-03-08T08:38:51.032Z,22.10
2019-03-08T08:39:51.027Z,19.70
2019-03-08T08:40:51.015Z,20.60
2019-03-08T08:41:51.106Z,22.10
2019-03-08T08:42:50.996Z,22.20
2019-03-08T08:43:50.984Z,23.60
2019-03-08T08:44:52.997Z,23.29
2019-03-08T08:45:50.964Z,23.79
2019-03-08T08:46:50.947Z,23.20
2019-03-08T08:47:51.090Z,19.50
2019-03-08T08:48:50.932Z,31.50
2019-03-08T08:49:54.521Z,23.50
2019-03-08T08:50:50.911Z,25.70
2019-03-08T08:51:50.903Z,28.89
2019-03-08T08:52:50.887Z,22.00
2019-03-08T08:53:50.976Z,32.59
2019-03-08T08:54:50.865Z,27.20
2019-03-08T08:55:50.860Z,28.20
2019-03-08T08:56:50.844Z,31.39
2019-03-08T08:57:50.848Z,29.20
2019-03-08T08:58:50.823Z,26.00
2019-03-08T08:59:50.864Z,25.60
2019-03-08T09:00:50.805Z,24.39
2019-03-08T09:01:50.788Z,23.20
2019-03-08T09:02:50.781Z,27.60
2019-03-08T09:03:50.772Z,22.70
2019-03-08T09:04:50.762Z,22.70
2019-03-08T09:05:50.950Z,26.60
2019-03-08T09:06:50.734Z,20.20
2019-03-08T09:07:50.759Z,21.00
2019-03-08T09:08:50.719Z,22.39
2019-03-08T09:09:50.705Z,27.00
2019-03-08T09:10:50.698Z,20.39
2019-03-08T09:11:52.901Z,18.79
2019-03-08T09:12:50.675Z,22.50
2019-03-08T09:13:50.664Z,24.60
2019-03-08T09:14:50.659Z,22.50
2019-03-08T09:15:50.645Z,16.00
2019-03-08T09:16:50.634Z,26.10
2019-03-08T09:17:50.679Z,22.89
2019-03-08T09:18:50.616Z,23.10
2019-03-08T09:19:50.604Z,21.60
2019-03-08T09:20:50.594Z,26.39
2019-03-08T09:21:50.582Z,19.20
2019-03-08T09:22:50.577Z,19.20
2019-03-08T09:23:50.718Z,19.50
2019-03-08T09:24:50.554Z,19.79
2019-03-08T09:25:50.544Z,19.70
2019-03-08T09:26:50.530Z,17.10
2019-03-08T09:27:50.517Z,18.89
2019-03-08T09:28:50.508Z,20.39
2019-03-08T09:29:50.598Z,23.50
2019-03-08T09:30:50.503Z,21.20
2019-03-08T09:31:50.477Z,16.29
2019-03-08T09:32:58.921Z,30.89
2019-03-08T09:33:51.545Z,31.70
2019-03-08T09:34:50.441Z,33.00
2019-03-08T09:35:50.537Z,40.70
2019-03-08T09:36:50.427Z,33.00
2019-03-08T09:37:50.419Z,26.50
2019-03-08T09:38:50.407Z,27.79
2019-03-08T09:39:50.395Z,26.89
2019-03-08T09:40:50.384Z,27.29
2019-03-08T09:41:50.521Z,24.79
2019-03-08T09:42:50.363Z,32.79
2019-03-08T09:43:50.352Z,21.39
2019-03-08T09:44:50.339Z,23.29
2019-03-08T09:45:50.330Z,27.70
2019-03-08T09:46:50.320Z,23.79
2019-03-08T09:47:50.408Z,26.70
2019-03-08T09:48:50.295Z,23.10
2019-03-08T09:49:50.288Z,20.89
2019-03-08T09:50:50.278Z,20.39
2019-03-08T09:51:50.263Z,35.59
2019-03-08T09:52:50.251Z,19.50
2019-03-08T09:53:50.344Z,29.00
2019-03-08T09:54:50.233Z,25.60
2019-03-08T09:55:50.220Z,25.70
2019-03-08T09:56:50.210Z,28.29
2019-03-08T09:57:52.105Z,32.29
2019-03-08T09:58:50.188Z,25.20
2019-03-08T09:59:50.331Z,22.29
2019-03-08T10:00:50.167Z,27.29
2019-03-08T10:01:50.158Z,27.39
2019-03-08T10:02:50.144Z,25.10
2019-03-08T10:03:50.140Z,24.60
2019-03-08T10:04:50.127Z,25.29
2019-03-08T10:05:50.166Z,22.70
2019-03-08T10:06:50.105Z,22.20
2019-03-08T10:07:50.096Z,23.79
2019-03-08T10:08:50.086Z,26.20
2019-03-08T10:09:50.073Z,26.10
2019-03-08T10:10:50.062Z,30.79
2019-03-08T10:11:50.099Z,22.89
2019-03-08T10:12:50.042Z,18.39
2019-03-08T10:13:50.028Z,26.89
2019-03-08T10:14:50.026Z,28.60
2019-03-08T10:15:50.010Z,23.39
2019-03-08T10:16:49.997Z,22.50
2019-03-08T10:17:50.138Z,25.20
2019-03-08T10:18:49.975Z,23.39
2019-03-08T10:19:49.966Z,26.29
2019-03-08T10:20:49.959Z,23.79
2019-03-08T10:21:49.945Z,31.20
2019-03-08T10:22:49.936Z,20.29
2019-03-08T10:23:49.975Z,24.79
2019-03-08T10:24:49.914Z,21.89
2019-03-08T10:25:49.908Z,29.60
2019-03-08T10:26:49.894Z,23.89
2019-03-08T10:27:49.884Z,33.59
2019-03-08T10:28:49.875Z,30.50
2019-03-08T10:29:49.907Z,32.00
2019-03-08T10:30:49.851Z,36.79
2019-03-08T10:31:49.841Z,35.50
2019-03-08T10:32:49.828Z,32.20
2019-03-08T10:33:49.821Z,31.20
2019-03-08T10:34:49.858Z,25.89
2019-03-08T10:35:49.804Z,30.39
2019-03-08T10:36:49.787Z,29.20
2019-03-08T10:37:49.779Z,28.60
2019-03-08T10:38:49.767Z,30.29
2019-03-08T10:39:49.757Z,23.00
2019-03-08T10:40:49.804Z,24.00
2019-03-08T10:41:49.734Z,19.79
2019-03-08T10:42:49.741Z,26.79
2019-03-08T10:43:49.712Z,26.50
2019-03-08T10:44:49.704Z,23.70
2019-03-08T10:45:49.895Z,24.89
2019-03-08T10:46:49.679Z,22.70
2019-03-08T10:47:56.031Z,25.70
2019-03-08T10:49:14.477Z,31.10
2019-03-08T10:50:14.463Z,30.70
2019-03-08T10:51:14.504Z,21.50
2019-03-08T10:52:17.731Z,20.29
2019-03-08T10:53:14.505Z,28.10
2019-03-08T10:54:14.499Z,30.89
2019-03-08T10:55:14.493Z,25.60
2019-03-08T10:56:14.465Z,30.50
2019-03-08T10:58:14.548Z,26.10
2019-03-08T10:59:14.450Z,27.00
2019-03-08T11:00:14.444Z,34.00
2019-03-08T11:01:14.430Z,27.29
2019-03-08T11:02:14.423Z,32.09
2019-03-08T11:03:14.412Z,45.50
2019-03-08T11:04:14.930Z,38.59
2019-03-08T11:05:14.332Z,26.70
2019-03-08T11:06:14.316Z,33.00
2019-03-08T11:07:14.316Z,38.40
2019-03-08T11:08:14.273Z,28.50
2019-03-08T11:09:14.261Z,27.89
2019-03-08T18:39:09.533Z,64.90
2019-03-08T18:40:09.476Z,60.59
2019-03-08T18:41:09.511Z,53.90
2019-03-08T18:42:09.454Z,64.90
2019-03-08T18:43:09.445Z,71.80
2019-03-08T18:44:09.432Z,77.00
2019-03-08T18:45:50.052Z,78.09
2019-03-08T18:46:09.559Z,59.20
2019-03-08T18:47:09.394Z,73.90
2019-03-08T18:48:09.386Z,67.90
2019-03-08T18:49:09.429Z,74.90
2019-03-08T18:50:09.358Z,75.40
2019-03-08T18:51:09.353Z,89.90
2019-03-08T18:52:11.545Z,76.69
2019-03-08T18:53:09.381Z,91.59
2019-03-08T18:54:09.332Z,68.30
2019-03-08T18:55:09.317Z,70.19
2019-03-08T18:56:09.313Z,39.70
2019-03-08T18:57:09.329Z,44.79
2019-03-08T18:58:09.330Z,43.50
2019-03-08T18:59:09.267Z,50.79
2019-03-08T19:00:09.305Z,46.79
2019-03-08T19:01:09.251Z,37.00
2019-03-08T19:03:09.228Z,32.90
2019-03-08T19:21:09.037Z,50.79
2019-03-08T19:22:09.025Z,52.90
2019-03-08T19:23:09.069Z,52.50
2019-03-08T19:25:08.998Z,43.00
2019-03-08T19:26:09.033Z,42.79
2019-03-08T19:27:08.972Z,52.40
2019-03-08T19:28:09.080Z,47.20
2019-03-08T19:29:09.034Z,55.29
2019-03-08T19:30:09.030Z,127.80
2019-03-08T19:31:09.018Z,153.69
2019-03-08T19:32:09.009Z,204.80
2019-03-08T19:33:09.043Z,211.39
2019-03-08T19:34:08.984Z,372.50
2019-03-08T19:35:08.977Z,278.39
2019-03-08T19:36:08.961Z,231.00
2019-03-08T19:37:08.952Z,142.89
2019-03-08T19:38:09.396Z,95.59
2019-03-08T19:39:08.932Z,96.90
2019-03-08T19:40:08.921Z,115.90
2019-03-08T19:41:08.915Z,115.80
2019-03-08T19:42:08.959Z,105.50
2019-03-08T19:43:08.891Z,112.50
2019-03-08T19:44:08.922Z,112.90
2019-03-08T19:45:08.917Z,76.80
2019-03-08T19:46:08.859Z,93.80
2019-03-08T19:47:08.844Z,69.59
2019-03-08T19:48:08.842Z,113.80
2019-03-08T19:49:08.868Z,64.80
2019-03-08T19:50:08.821Z,99.30
2019-03-08T19:51:08.802Z,132.50
2019-03-08T19:52:08.799Z,64.90
2019-03-08T19:53:08.783Z,96.50
2019-03-08T19:54:09.270Z,104.69
2019-03-08T19:55:08.762Z,107.09
2019-03-08T19:56:08.741Z,78.09
2019-03-08T19:57:08.789Z,64.80
2019-03-08T19:58:08.737Z,78.59
2019-03-08T19:59:08.717Z,60.50
2019-03-08T20:00:08.723Z,70.19
2019-03-08T20:01:08.751Z,44.50
2019-03-08T20:03:08.675Z,50.90
2019-03-08T20:04:08.666Z,48.29
2019-03-08T20:05:08.761Z,72.30
2019-03-08T20:06:08.649Z,76.50
2019-03-08T20:07:08.637Z,65.50
2019-03-08T20:08:08.627Z,119.40
2019-03-08T20:09:08.611Z,123.19
2019-03-08T20:10:09.201Z,112.90
2019-03-08T20:11:08.640Z,161.19
2019-03-08T20:12:08.637Z,134.80
2019-03-08T20:13:08.572Z,161.69
2019-03-08T20:14:08.563Z,130.60
2019-03-08T20:15:08.557Z,146.00
2019-03-08T20:16:08.546Z,172.19
2019-03-08T20:17:08.583Z,167.69
2019-03-08T20:18:08.526Z,161.30
2019-03-08T20:19:08.515Z,124.09
2019-03-08T20:20:08.498Z,99.09
2019-03-08T20:21:08.539Z,52.79
2019-03-08T20:34:33.171Z,21.29
2019-03-08T21:17:32.707Z,47.40
2019-03-08T21:18:33.145Z,53.00
2019-03-08T21:19:32.689Z,53.79
2019-03-08T21:20:32.691Z,95.30
2019-03-08T21:21:32.769Z,178.00
2019-03-08T21:22:32.660Z,95.50
2019-03-08T21:23:32.645Z,83.69
2019-03-08T21:24:32.637Z,104.50
2019-03-08T21:25:32.624Z,52.40
2019-03-08T21:26:32.662Z,61.59
2019-03-08T21:27:32.605Z,75.59
2019-03-08T21:28:32.643Z,69.69
2019-03-08T21:29:32.584Z,58.09
2019-03-08T21:30:32.576Z,67.30
2019-03-08T21:31:32.564Z,51.40
2019-03-08T21:36:32.503Z,52.70
2019-03-08T21:37:32.499Z,39.29
2019-03-08T21:38:32.986Z,45.59
2019-03-08T21:40:32.462Z,50.00
2019-03-08T21:41:32.454Z,54.59